createdAt,value
2023-05-11T00:02:26.187Z,5.83
2023-05-11T00:04:54.408Z,5.03
2023-05-11T00:07:21.461Z,4.80
2023-05-11T00:09:48.525Z,5.60
2023-05-11T00:12:15.541Z,5.47
2023-05-11T00:14:42.742Z,5.20
2023-05-11T00:17:10.897Z,5.07
2023-05-11T00:19:38.258Z,4.93
2023-05-11T00:22:05.240Z,6.20
2023-05-11T00:24:32.374Z,6.97
2023-05-11T00:26:59.319Z,6.60
2023-05-11T00:29:26.466Z,5.70
2023-05-11T00:31:53.429Z,6.37
2023-05-11T00:34:20.655Z,5.13
2023-05-11T00:36:47.814Z,5.80
2023-05-11T00:39:15.094Z,6.53
2023-05-11T00:41:41.922Z,6.80
2023-05-11T00:44:09.248Z,7.03
2023-05-11T00:46:36.555Z,6.33
2023-05-11T00:49:03.827Z,6.70
2023-05-11T00:51:32.881Z,6.87
2023-05-11T00:54:01.133Z,6.83
2023-05-11T00:56:28.364Z,7.57
2023-05-11T00:58:55.609Z,6.73
2023-05-11T01:01:22.712Z,7.83
2023-05-11T01:03:50.201Z,7.73
2023-05-11T01:06:32.414Z,6.17
2023-05-11T01:09:06.662Z,7.70
2023-05-11T01:11:48.341Z,7.23
2023-05-11T01:14:23.361Z,6.93
2023-05-11T01:16:56.008Z,6.30
2023-05-11T01:19:32.330Z,6.20
2023-05-11T01:22:00.105Z,5.90
2023-05-11T01:24:42.419Z,7.07
2023-05-11T01:27:18.225Z,6.13
2023-05-11T01:30:04.832Z,6.20
2023-05-11T01:32:35.846Z,7.27
2023-05-11T01:35:12.350Z,7.30
2023-05-11T01:37:45.851Z,6.57
2023-05-11T01:40:17.287Z,7.07
2023-05-11T01:43:01.415Z,8.17
2023-05-11T01:45:31.767Z,6.97
2023-05-11T01:48:03.057Z,6.73
2023-05-11T01:50:32.781Z,7.27
2023-05-11T01:53:02.961Z,7.33
2023-05-11T01:55:32.312Z,9.43
2023-05-11T01:58:00.927Z,8.43
2023-05-11T02:00:28.567Z,7.85
2023-05-11T02:02:57.809Z,8.37
2023-05-11T02:05:25.295Z,6.87
2023-05-11T02:07:54.460Z,8.17
2023-05-11T02:10:25.797Z,7.20
2023-05-11T02:12:54.539Z,9.00
2023-05-11T02:15:22.823Z,7.72
2023-05-11T02:17:51.374Z,7.93
2023-05-11T02:20:20.318Z,7.15
2023-05-11T02:22:49.122Z,7.65
2023-05-11T02:25:17.246Z,6.25
2023-05-11T02:27:44.298Z,6.70
2023-05-11T02:30:12.953Z,6.70
2023-05-11T02:32:47.718Z,7.60
2023-05-11T02:35:18.707Z,7.50
2023-05-11T02:37:48.357Z,8.97
2023-05-11T02:43:13.255Z,7.20
2023-05-11T02:48:14.095Z,7.83
2023-05-11T02:50:43.006Z,7.50
2023-05-11T02:53:16.500Z,6.80
2023-05-11T02:55:44.252Z,7.33
2023-05-11T02:58:11.654Z,7.13
2023-05-11T03:00:39.772Z,7.73
2023-05-11T03:03:06.966Z,7.37
2023-05-11T03:05:34.243Z,8.00
2023-05-11T03:08:01.741Z,7.77
2023-05-11T03:10:29.670Z,7.40
2023-05-11T03:12:56.836Z,8.23
2023-05-11T03:15:24.496Z,8.40
2023-05-11T03:17:52.391Z,7.33
2023-05-11T03:20:22.349Z,8.40
2023-05-11T03:22:49.871Z,8.77
2023-05-11T03:25:17.743Z,8.73
2023-05-11T03:27:46.835Z,9.20
2023-05-11T03:30:15.932Z,9.57
2023-05-11T03:32:43.102Z,10.43
2023-05-11T03:35:10.533Z,10.27
2023-05-11T03:37:39.036Z,11.70
2023-05-11T03:40:08.220Z,10.68
2023-05-11T03:42:37.616Z,10.02
2023-05-11T03:45:07.886Z,10.00
2023-05-11T03:47:36.124Z,9.70
2023-05-11T03:50:04.425Z,10.93
2023-05-11T03:52:32.512Z,10.47
2023-05-11T03:54:59.785Z,9.32
2023-05-11T03:57:27.836Z,9.03
2023-05-11T03:59:54.983Z,9.23
2023-05-11T04:02:24.586Z,9.67
2023-05-11T04:04:54.818Z,10.10
2023-05-11T04:07:21.967Z,10.37
2023-05-11T04:09:49.083Z,9.80
2023-05-11T04:12:15.951Z,9.97
2023-05-11T04:14:43.263Z,10.40
2023-05-11T04:17:10.284Z,10.77
2023-05-11T04:19:37.374Z,13.13
2023-05-11T04:22:04.209Z,12.13
2023-05-11T04:24:31.344Z,10.47
2023-05-11T04:26:58.229Z,9.00
2023-05-11T04:29:25.666Z,8.60
2023-05-11T04:31:52.532Z,6.70
2023-05-11T04:34:19.734Z,7.20
2023-05-11T04:36:50.924Z,7.73
2023-05-11T04:39:18.158Z,6.53
2023-05-11T04:41:45.391Z,7.03
2023-05-11T04:44:12.727Z,7.67
2023-05-11T04:46:39.639Z,7.85
2023-05-11T04:49:07.092Z,6.83
2023-05-11T04:51:33.984Z,7.75
2023-05-11T04:54:01.134Z,7.18
2023-05-11T04:56:27.996Z,6.80
2023-05-11T04:58:55.148Z,6.60
2023-05-11T05:01:22.099Z,6.97
2023-05-11T05:03:49.906Z,6.90
2023-05-11T05:06:16.884Z,7.78
2023-05-11T05:08:44.014Z,7.50
2023-05-11T05:11:11.174Z,6.95
2023-05-11T05:13:38.340Z,7.10
2023-05-11T05:16:05.480Z,7.00
2023-05-11T05:18:32.909Z,6.25
2023-05-11T05:20:59.899Z,7.22
2023-05-11T05:23:27.029Z,6.55
2023-05-11T05:25:54.079Z,6.65
2023-05-11T05:28:21.225Z,6.25
2023-05-11T05:30:48.135Z,5.55
2023-05-11T05:33:15.334Z,5.45
2023-05-11T05:35:43.960Z,4.55
2023-05-11T05:38:11.304Z,4.68
2023-05-11T05:40:39.585Z,5.93
2023-05-11T05:43:06.944Z,4.70
2023-05-11T05:45:33.767Z,4.13
2023-05-11T05:48:01.104Z,4.25
2023-05-11T05:50:28.386Z,4.35
2023-05-11T05:52:55.821Z,5.20
2023-05-11T05:55:22.709Z,4.47
2023-05-11T05:57:50.235Z,5.30
2023-05-11T06:00:17.753Z,5.88
2023-05-11T06:02:45.139Z,3.90
2023-05-11T06:05:12.063Z,4.60
2023-05-11T06:07:39.259Z,4.97
2023-05-11T06:10:06.641Z,4.85
2023-05-11T06:12:33.936Z,3.97
2023-05-11T06:15:01.010Z,4.50
2023-05-11T06:17:28.680Z,5.15
2023-05-11T06:19:55.812Z,4.60
2023-05-11T06:22:23.007Z,4.30
2023-05-11T06:24:50.128Z,5.07
2023-05-11T06:27:18.383Z,4.63
2023-05-11T06:29:45.750Z,4.72
2023-05-11T06:32:12.896Z,4.88
2023-05-11T06:34:39.838Z,4.50
2023-05-11T06:37:07.488Z,4.75
2023-05-11T06:39:37.806Z,4.60
2023-05-11T06:42:06.807Z,5.30
2023-05-11T06:44:34.375Z,4.70
2023-05-11T06:47:01.593Z,4.63
2023-05-11T06:49:28.851Z,4.80
2023-05-11T06:51:55.989Z,4.40
2023-05-11T06:54:22.945Z,4.35
2023-05-11T06:56:50.134Z,4.32
2023-05-11T06:59:17.246Z,4.70
2023-05-11T07:01:44.775Z,4.80
2023-05-11T07:04:11.767Z,4.95
2023-05-11T07:06:38.983Z,4.47
2023-05-11T07:09:05.925Z,5.35
2023-05-11T07:11:33.055Z,4.93
2023-05-11T07:13:59.890Z,4.32
2023-05-11T07:16:27.241Z,4.03
2023-05-11T07:18:54.229Z,3.70
2023-05-11T07:21:24.537Z,4.70
2023-05-11T07:23:51.442Z,5.40
2023-05-11T07:26:18.601Z,4.28
2023-05-11T07:28:45.506Z,4.40
2023-05-11T07:31:12.753Z,3.80
2023-05-11T07:33:39.675Z,4.13
2023-05-11T07:36:07.566Z,3.72
2023-05-11T07:38:34.514Z,3.78
2023-05-11T07:41:01.788Z,4.25
2023-05-11T07:43:28.698Z,3.90
2023-05-11T07:45:55.953Z,4.25
2023-05-11T07:48:22.985Z,3.90
2023-05-11T07:50:50.172Z,4.00
2023-05-11T07:53:17.203Z,3.80
2023-05-11T07:55:44.461Z,4.18
2023-05-11T07:58:11.340Z,3.65
2023-05-11T08:00:38.550Z,3.47
2023-05-11T08:03:06.536Z,3.47
2023-05-11T08:05:37.484Z,3.10
2023-05-11T08:08:05.239Z,3.00
2023-05-11T08:10:32.481Z,3.03
2023-05-11T08:12:59.494Z,3.25
2023-05-11T08:15:27.042Z,3.28
2023-05-11T08:17:54.039Z,3.47
2023-05-11T08:20:21.303Z,3.40
2023-05-11T08:22:48.208Z,3.78
2023-05-11T08:25:15.478Z,3.53
2023-05-11T08:27:42.424Z,3.28
2023-05-11T08:30:11.784Z,2.70
2023-05-11T08:32:54.590Z,3.60
2023-05-11T08:35:24.800Z,3.28
2023-05-11T08:37:51.749Z,3.50
2023-05-11T08:40:21.755Z,3.20
2023-05-11T08:42:52.740Z,2.80
2023-05-11T08:45:21.300Z,3.03
2023-05-11T08:47:49.130Z,2.65
2023-05-11T08:50:16.541Z,2.63
2023-05-11T08:52:43.473Z,3.10
2023-05-11T08:55:11.169Z,2.70
2023-05-11T08:57:40.441Z,2.65
2023-05-11T09:00:08.638Z,2.88
2023-05-11T09:02:35.998Z,2.92
2023-05-11T09:05:04.474Z,2.55
2023-05-11T09:07:33.490Z,2.58
2023-05-11T09:10:01.518Z,2.22
2023-05-11T09:12:28.627Z,2.97
2023-05-11T09:15:01.864Z,2.88
2023-05-11T09:17:29.260Z,2.70
2023-05-11T09:20:01.595Z,2.72
2023-05-11T09:22:30.568Z,2.40
2023-05-11T09:25:01.893Z,2.53
2023-05-11T09:27:28.809Z,2.70
2023-05-11T09:29:56.017Z,2.47
2023-05-11T09:32:22.922Z,2.58
2023-05-11T09:34:50.380Z,2.13
2023-05-11T09:37:19.012Z,2.65
2023-05-11T09:42:33.027Z,2.17
2023-05-11T09:45:00.192Z,2.40
2023-05-11T09:47:27.687Z,2.08
2023-05-11T09:49:54.913Z,2.33
2023-05-11T09:52:21.796Z,2.22
2023-05-11T09:54:51.935Z,2.40
2023-05-11T09:57:29.931Z,2.55
2023-05-11T09:59:59.060Z,2.60
2023-05-11T10:02:28.236Z,2.63
2023-05-11T10:05:00.477Z,2.60
2023-05-11T10:07:30.231Z,2.45
2023-05-11T10:09:59.606Z,2.70
2023-05-11T10:12:27.481Z,2.30
2023-05-11T10:15:02.899Z,2.30
2023-05-11T10:17:33.232Z,1.88
2023-05-11T10:20:01.954Z,2.47
2023-05-11T10:22:30.260Z,2.95
2023-05-11T10:24:58.776Z,1.98
2023-05-11T10:27:27.145Z,2.47
2023-05-11T10:29:54.589Z,2.10
2023-05-11T10:32:22.694Z,2.40
2023-05-11T10:34:52.876Z,2.60
2023-05-11T10:37:21.444Z,2.22
2023-05-11T10:39:50.646Z,2.08
2023-05-11T10:45:25.532Z,1.80
2023-05-11T10:48:17.056Z,1.98
2023-05-11T10:51:18.068Z,2.30
2023-05-11T10:54:09.123Z,2.15
2023-05-11T10:57:07.197Z,2.17
2023-05-11T10:59:53.926Z,2.25
2023-05-11T11:02:21.821Z,2.17
2023-05-11T11:04:51.888Z,1.95
2023-05-11T11:07:20.181Z,2.05
2023-05-11T11:10:07.308Z,2.10
2023-05-11T11:12:35.255Z,2.42
2023-05-11T11:15:05.490Z,1.85
2023-05-11T11:17:35.196Z,2.30
2023-05-11T11:20:07.678Z,2.20
2023-05-11T11:22:34.979Z,2.33
2023-05-11T11:25:05.245Z,2.67
2023-05-11T11:27:41.974Z,2.00
2023-05-11T11:30:18.864Z,2.65
2023-05-11T11:32:48.398Z,2.30
2023-05-11T11:35:40.142Z,2.13
2023-05-11T11:38:14.653Z,2.92
2023-05-11T11:40:51.197Z,5.13
2023-05-11T11:43:27.044Z,2.80
2023-05-11T11:46:01.135Z,3.55
2023-05-11T11:48:42.476Z,1.88
2023-05-11T11:51:11.233Z,2.00
2023-05-11T11:53:38.589Z,2.40
2023-05-11T11:56:08.008Z,3.60
2023-05-11T11:58:41.419Z,6.97
2023-05-11T12:01:10.194Z,4.60
2023-05-11T12:06:08.121Z,3.00
2023-05-11T12:08:36.785Z,2.20
2023-05-11T12:11:04.730Z,2.95
2023-05-11T12:13:32.818Z,3.10
2023-05-11T12:16:15.808Z,2.55
2023-05-11T12:18:52.826Z,2.10
2023-05-11T12:21:23.856Z,1.80
2023-05-11T12:23:59.200Z,2.40
2023-05-11T12:26:27.391Z,2.13
2023-05-11T12:29:09.247Z,1.90
2023-05-11T12:31:40.954Z,2.22
2023-05-11T12:34:15.530Z,2.10
2023-05-11T12:36:43.327Z,2.20
2023-05-11T12:39:17.856Z,2.40
2023-05-11T12:41:45.272Z,2.55
2023-05-11T12:44:14.577Z,2.03
2023-05-11T12:46:41.895Z,2.42
2023-05-11T12:49:10.193Z,2.00
2023-05-11T12:51:42.805Z,1.73
2023-05-11T12:54:10.233Z,1.83
2023-05-11T12:56:48.139Z,2.50
2023-05-11T12:59:30.486Z,2.50
2023-05-11T13:02:20.622Z,2.25
2023-05-11T13:04:48.881Z,2.30
2023-05-11T13:07:25.022Z,2.40
2023-05-11T13:10:00.227Z,2.50
2023-05-11T13:12:30.247Z,2.13
2023-05-11T13:15:13.351Z,2.20
2023-05-11T13:17:42.366Z,2.45
2023-05-11T13:20:27.675Z,2.20
2023-05-11T13:23:15.520Z,2.50
2023-05-11T13:25:45.435Z,2.20
2023-05-11T13:28:14.517Z,2.55
2023-05-11T13:30:42.302Z,1.85
2023-05-11T13:33:09.616Z,2.03
2023-05-11T13:35:41.385Z,2.60
2023-05-11T13:38:09.049Z,2.40
2023-05-11T13:40:36.783Z,2.58
2023-05-11T13:43:03.861Z,2.55
2023-05-11T13:45:31.123Z,2.40
2023-05-11T13:47:58.102Z,2.25
2023-05-11T13:50:26.552Z,1.75
2023-05-11T13:52:54.110Z,2.63
2023-05-11T13:55:22.011Z,2.20
2023-05-11T13:57:49.329Z,2.70
2023-05-11T14:00:16.944Z,1.88
2023-05-11T14:02:44.978Z,2.25
2023-05-11T14:05:12.246Z,2.30
2023-05-11T14:07:47.867Z,2.35
2023-05-11T14:10:19.741Z,2.13
2023-05-11T14:12:46.834Z,2.28
2023-05-11T14:15:14.144Z,2.00
2023-05-11T14:17:43.153Z,2.17
2023-05-11T14:20:12.927Z,1.73
2023-05-11T14:22:41.684Z,2.30
2023-05-11T14:25:09.075Z,1.80
2023-05-11T14:27:36.357Z,1.92
2023-05-11T14:30:03.753Z,2.25
2023-05-11T14:32:30.742Z,2.22
2023-05-11T14:34:57.988Z,2.22
2023-05-11T14:37:24.909Z,1.70
2023-05-11T14:39:52.098Z,2.47
2023-05-11T14:42:19.179Z,2.30
2023-05-11T14:44:46.453Z,2.55
2023-05-11T14:47:13.360Z,2.22
2023-05-11T14:49:40.524Z,2.60
2023-05-11T14:52:07.352Z,2.28
2023-05-11T14:54:35.167Z,2.17
2023-05-11T14:57:02.041Z,2.33
2023-05-11T14:59:29.239Z,2.03
2023-05-11T15:01:56.117Z,2.30
2023-05-11T15:04:23.356Z,2.55
2023-05-11T15:06:50.467Z,2.42
2023-05-11T15:09:17.644Z,2.40
2023-05-11T15:11:44.523Z,2.17
2023-05-11T15:14:11.907Z,2.13
2023-05-11T15:16:38.889Z,2.38
2023-05-11T15:19:06.508Z,2.60
2023-05-11T15:21:33.555Z,2.47
2023-05-11T15:24:00.945Z,2.30
2023-05-11T15:26:27.848Z,2.72
2023-05-11T15:28:55.066Z,2.13
2023-05-11T15:31:22.603Z,2.08
2023-05-11T15:33:50.017Z,1.95
2023-05-11T15:36:16.987Z,2.40
2023-05-11T15:38:44.156Z,2.20
2023-05-11T15:41:11.021Z,1.80
2023-05-11T15:43:38.148Z,2.33
2023-05-11T15:46:05.806Z,2.13
2023-05-11T15:48:33.360Z,2.20
2023-05-11T15:51:01.337Z,2.22
2023-05-11T15:53:28.884Z,2.17
2023-05-11T15:55:56.900Z,2.50
2023-05-11T15:58:24.300Z,3.03
2023-05-11T16:00:51.411Z,2.47
2023-05-11T16:03:20.021Z,2.17
2023-05-11T16:05:47.441Z,2.30
2023-05-11T16:08:14.730Z,2.60
2023-05-11T16:10:41.665Z,2.65
2023-05-11T16:13:09.815Z,2.85
2023-05-11T16:15:36.854Z,2.10
2023-05-11T16:18:05.293Z,2.63
2023-05-11T16:20:32.496Z,2.37
2023-05-11T16:22:59.817Z,2.50
2023-05-11T16:25:26.908Z,2.70
2023-05-11T16:27:54.075Z,2.72
2023-05-11T16:30:24.157Z,2.13
2023-05-11T16:32:52.014Z,30.67
2023-05-11T16:35:19.324Z,2.28
2023-05-11T16:37:48.006Z,2.80
2023-05-11T16:40:19.198Z,2.80
2023-05-11T16:42:47.608Z,3.50
2023-05-11T16:45:16.571Z,3.63
2023-05-11T16:47:45.571Z,4.47
2023-05-11T16:52:43.677Z,3.72
2023-05-11T16:55:11.929Z,5.13
2023-05-11T16:57:38.836Z,3.65
2023-05-11T17:00:07.022Z,3.67
2023-05-11T17:02:34.088Z,3.78
2023-05-11T17:05:02.075Z,3.95
2023-05-11T17:07:28.958Z,3.40
2023-05-11T17:09:57.321Z,4.18
2023-05-11T17:12:24.408Z,2.95
2023-05-11T17:14:51.705Z,3.85
2023-05-11T17:17:18.557Z,4.13
2023-05-11T17:19:45.692Z,4.95
2023-05-11T17:34:28.021Z,3.33
2023-05-11T17:36:56.026Z,4.30
2023-05-11T17:39:23.179Z,5.05
2023-05-11T17:41:50.189Z,5.57
2023-05-11T17:44:17.437Z,5.75
2023-05-11T17:46:44.390Z,6.53
2023-05-11T17:49:11.669Z,6.70
2023-05-11T17:51:38.609Z,7.75
2023-05-11T17:54:05.833Z,6.68
2023-05-11T17:56:32.897Z,5.95
2023-05-11T17:59:00.130Z,7.40
2023-05-11T18:01:27.764Z,8.20
2023-05-11T18:03:55.192Z,6.10
2023-05-11T18:06:22.199Z,7.38
2023-05-11T18:08:49.460Z,5.95
2023-05-11T18:11:16.475Z,4.72
2023-05-11T18:13:43.644Z,3.70
2023-05-11T18:16:10.460Z,5.13
2023-05-11T18:18:37.901Z,12.40
2023-05-11T18:21:06.264Z,6.82
2023-05-11T18:23:33.812Z,15.30
2023-05-11T18:26:00.823Z,11.40
2023-05-11T18:28:28.308Z,22.05
2023-05-11T18:30:55.618Z,15.43
2023-05-11T18:33:23.127Z,20.42
2023-05-11T18:35:53.270Z,11.35
2023-05-11T18:38:20.537Z,13.00
2023-05-11T18:40:47.819Z,12.70
2023-05-11T18:43:15.062Z,11.85
2023-05-11T18:45:43.147Z,8.75
2023-05-11T18:48:10.350Z,11.32
2023-05-11T18:50:37.323Z,10.45
2023-05-11T18:53:04.499Z,10.52
2023-05-11T18:55:38.136Z,11.00
2023-05-11T18:58:12.835Z,11.10
2023-05-11T19:00:40.594Z,6.50
2023-05-11T19:03:08.259Z,5.75
2023-05-11T19:05:35.137Z,5.82
2023-05-11T19:08:02.311Z,5.97
2023-05-11T19:10:29.172Z,6.20
2023-05-11T19:12:56.451Z,5.43
2023-05-11T19:15:23.276Z,5.78
2023-05-11T19:17:50.534Z,6.22
2023-05-11T19:20:17.858Z,6.45
2023-05-11T19:22:45.117Z,5.38
2023-05-11T19:25:12.017Z,6.95
2023-05-11T19:27:39.862Z,6.03
2023-05-11T19:30:09.508Z,5.55
2023-05-11T19:32:36.838Z,5.55
2023-05-11T19:35:04.631Z,6.90
2023-05-11T19:37:31.948Z,6.07
2023-05-11T19:40:11.492Z,6.78
2023-05-11T19:42:46.121Z,7.32
2023-05-11T19:45:15.002Z,5.22
2023-05-11T19:47:42.171Z,5.15
2023-05-11T19:50:09.347Z,4.55
2023-05-11T19:52:36.807Z,4.15
2023-05-11T19:55:04.404Z,5.22
2023-05-11T19:57:37.141Z,4.18
2023-05-11T20:00:06.310Z,4.18
2023-05-11T20:05:00.703Z,3.65
2023-05-11T20:07:28.016Z,4.18
2023-05-11T20:09:55.122Z,3.75
2023-05-11T20:12:22.370Z,5.22
2023-05-11T20:14:49.462Z,3.78
2023-05-11T20:17:16.625Z,3.63
2023-05-11T20:19:43.458Z,3.50
2023-05-11T20:22:10.663Z,3.90
2023-05-11T20:24:37.625Z,4.72
2023-05-11T20:27:09.544Z,3.72
2023-05-11T20:29:38.891Z,4.47
2023-05-11T20:32:06.856Z,3.63
2023-05-11T20:34:33.876Z,4.93
2023-05-11T20:37:01.130Z,4.32
2023-05-11T20:39:28.427Z,7.55
2023-05-11T20:41:58.849Z,8.63
2023-05-11T20:44:26.294Z,11.52
2023-05-11T20:46:53.485Z,7.95
2023-05-11T20:49:37.580Z,6.30
2023-05-11T20:52:06.781Z,5.93
2023-05-11T20:54:36.780Z,6.10
2023-05-11T20:57:04.494Z,6.88
2023-05-11T21:02:02.594Z,10.88
2023-05-11T21:04:31.331Z,8.90
2023-05-11T21:06:58.560Z,9.05
2023-05-11T21:09:25.630Z,11.38
2023-05-11T21:11:52.887Z,9.80
2023-05-11T21:14:20.346Z,9.75
2023-05-11T21:16:48.000Z,6.90
2023-05-11T21:19:18.584Z,6.25
2023-05-11T21:21:48.615Z,5.70
2023-05-11T21:24:16.263Z,6.63
2023-05-11T21:26:43.949Z,6.32
2023-05-11T21:29:13.158Z,6.90
2023-05-11T21:31:40.355Z,8.85
2023-05-11T21:34:07.179Z,7.38
2023-05-11T21:36:34.401Z,8.15
2023-05-11T21:39:01.329Z,6.93
2023-05-11T21:41:28.487Z,6.32
2023-05-11T21:43:55.383Z,5.80
2023-05-11T21:46:22.623Z,5.40
2023-05-11T21:48:49.495Z,5.35
2023-05-11T21:51:16.685Z,5.95
2023-05-11T21:53:43.513Z,6.97
2023-05-11T21:56:10.668Z,5.32
2023-05-11T21:58:37.877Z,5.05
2023-05-11T22:01:05.030Z,5.80
2023-05-11T22:03:32.290Z,6.23
2023-05-11T22:05:59.564Z,5.22
2023-05-11T22:08:26.585Z,5.72
2023-05-11T22:10:53.828Z,5.10
2023-05-11T22:13:21.709Z,4.72
2023-05-11T22:15:48.853Z,5.55
2023-05-11T22:18:15.834Z,5.63
2023-05-11T22:20:43.358Z,6.70
2023-05-11T22:23:10.189Z,6.30
2023-05-11T22:25:37.290Z,6.13
2023-05-11T22:28:04.970Z,5.43
2023-05-11T22:30:32.169Z,6.20
2023-05-11T22:32:59.119Z,5.53
2023-05-11T22:35:26.625Z,4.85
2023-05-11T22:37:54.303Z,5.25
2023-05-11T22:40:21.588Z,5.37
2023-05-11T22:42:48.534Z,5.57
2023-05-11T22:45:16.511Z,5.30
2023-05-11T22:47:43.566Z,7.03
2023-05-11T22:50:12.220Z,5.35
2023-05-11T22:52:39.507Z,5.50
2023-05-11T22:55:07.200Z,4.88
2023-05-11T22:57:34.138Z,4.97
2023-05-11T23:00:01.294Z,5.47
2023-05-11T23:02:29.805Z,5.72
2023-05-11T23:04:57.735Z,5.30
2023-05-11T23:07:24.571Z,5.30
2023-05-11T23:09:52.972Z,4.78
2023-05-11T23:12:20.043Z,4.60
2023-05-11T23:14:47.456Z,4.47
2023-05-11T23:19:41.858Z,4.90
2023-05-11T23:22:08.866Z,4.70
2023-05-11T23:24:36.198Z,4.40
2023-05-11T23:27:03.509Z,4.97
2023-05-11T23:29:30.721Z,6.00
2023-05-11T23:31:57.594Z,4.60
2023-05-11T23:34:24.726Z,4.63
2023-05-11T23:36:51.745Z,4.33
2023-05-11T23:39:19.226Z,5.57
2023-05-11T23:42:01.610Z,4.50
2023-05-11T23:44:28.807Z,4.10
2023-05-11T23:46:55.737Z,4.30
2023-05-11T23:49:23.016Z,4.37
2023-05-11T23:51:49.937Z,4.20
2023-05-11T23:54:17.118Z,4.55
2023-05-11T23:56:44.694Z,4.57
2023-05-11T23:59:11.832Z,4.67
